Time;durP1;ratioP1;P1;durP2;ratioP2;P2;SDS_P1;SDS_P2;PMS_P1;PMS_P2;Temp;Humidity;BMP_temperature;BMP_pressure;BME280_temperature;BME280_humidity;BME280_pressure;Samples;Min_cycle;Max_cycle;Signal;HPM_P1;HPM_P2
2023/12/29 00:02:13;;;;;;;21.77;3.50;;;;;;;;;;5112156;28;20027;-75
2023/12/29 00:04:39;;;;;;;23.60;3.47;;;;;;;;;;5112536;28;20081;-75
2023/12/29 00:07:05;;;;;;;26.27;3.45;;;;;;;;;;5112413;28;20658;-76
2023/12/29 00:09:38;;;;;;;28.15;4.20;;;;;;;;;;5112182;28;20031;-74
2023/12/29 00:12:04;;;;;;;23.42;4.00;;;;;;;;;;5112677;28;20550;-75
2023/12/29 00:14:30;;;;;;;16.42;3.55;;;;;;;;;;5112594;28;20039;-75
2023/12/29 00:16:57;;;;;;;22.73;3.40;;;;;;;;;;5112338;28;20032;-76
2023/12/29 00:19:23;;;;;;;24.23;4.13;;;;;;;;;;5112211;28;20023;-75
2023/12/29 00:21:49;;;;;;;20.27;3.05;;;;;;;;;;5111898;28;20027;-75
2023/12/29 00:24:15;;;;;;;22.98;3.85;;;;;;;;;;5112009;28;20104;-75
2023/12/29 00:26:41;;;;;;;20.67;3.60;;;;;;;;;;5112128;28;20023;-74
2023/12/29 00:29:07;;;;;;;30.20;3.78;;;;;;;;;;5093731;28;20035;-74
2023/12/29 00:31:33;;;;;;;19.63;3.60;;;;;;;;;;5112506;28;20028;-75
2023/12/29 00:33:59;;;;;;;29.75;4.47;;;;;;;;;;5112706;28;20099;-74
2023/12/29 00:36:25;;;;;;;24.00;3.42;;;;;;;;;;5094618;28;20480;-75
2023/12/29 00:38:51;;;;;;;26.48;3.50;;;;;;;;;;5111593;28;20031;-75
2023/12/29 00:41:17;;;;;;;25.40;3.60;;;;;;;;;;5111989;28;20111;-75
2023/12/29 00:43:43;;;;;;;32.17;4.18;;;;;;;;;;5113128;28;20067;-74
2023/12/29 00:46:09;;;;;;;19.45;3.65;;;;;;;;;;5111998;28;20031;-74
2023/12/29 00:48:35;;;;;;;17.67;3.55;;;;;;;;;;5115044;28;20020;-74
2023/12/29 00:51:02;;;;;;;28.75;4.05;;;;;;;;;;5116102;28;20440;-75
2023/12/29 00:53:29;;;;;;;32.22;4.18;;;;;;;;;;5115801;28;20028;-75
2023/12/29 00:55:55;;;;;;;24.15;3.47;;;;;;;;;;5116199;28;20424;-73
2023/12/29 00:58:21;;;;;;;22.70;4.07;;;;;;;;;;5116162;28;20079;-74
2023/12/29 01:00:47;;;;;;;20.20;3.65;;;;;;;;;;5114007;28;20035;-74
2023/12/29 01:03:13;;;;;;;21.80;3.60;;;;;;;;;;5114913;28;20019;-73
2023/12/29 01:05:39;;;;;;;18.50;3.28;;;;;;;;;;5107896;28;20484;-73
2023/12/29 01:08:05;;;;;;;20.10;3.33;;;;;;;;;;5099515;28;20020;-73
2023/12/29 01:10:31;;;;;;;30.02;4.13;;;;;;;;;;5114077;28;20036;-74
2023/12/29 01:12:57;;;;;;;23.30;3.50;;;;;;;;;;5096439;28;20471;-75
2023/12/29 01:15:23;;;;;;;29.40;4.13;;;;;;;;;;5096027;28;20024;-75
2023/12/29 01:17:49;;;;;;;20.88;3.35;;;;;;;;;;5095906;28;20436;-75
2023/12/29 01:20:15;;;;;;;24.33;3.40;;;;;;;;;;5095623;28;20043;-75
2023/12/29 01:22:41;;;;;;;29.20;4.15;;;;;;;;;;5095345;28;20039;-75
2023/12/29 01:25:07;;;;;;;28.15;3.80;;;;;;;;;;5095092;28;20025;-74
2023/12/29 01:27:33;;;;;;;25.45;4.35;;;;;;;;;;5095050;28;20468;-74
2023/12/29 01:30:00;;;;;;;22.02;3.80;;;;;;;;;;5092800;28;20127;-74
2023/12/29 01:32:26;;;;;;;21.73;3.53;;;;;;;;;;5093757;28;20069;-75
2023/12/29 01:34:55;;;;;;;21.45;3.25;;;;;;;;;;5093822;28;20051;-74
2023/12/29 01:37:21;;;;;;;22.65;3.63;;;;;;;;;;5094118;28;20032;-75
2023/12/29 01:39:47;;;;;;;24.85;3.58;;;;;;;;;;5093536;28;20154;-74
2023/12/29 01:42:13;;;;;;;32.25;4.20;;;;;;;;;;5092469;28;20059;-74
2023/12/29 01:44:39;;;;;;;22.23;4.07;;;;;;;;;;5093550;28;20467;-74
2023/12/29 01:47:10;;;;;;;24.95;3.60;;;;;;;;;;5093509;28;20035;-73
2023/12/29 01:49:37;;;;;;;23.45;3.20;;;;;;;;;;5093405;28;20107;-74
2023/12/29 01:52:03;;;;;;;23.42;4.10;;;;;;;;;;5092753;28;20420;-74
2023/12/29 01:54:31;;;;;;;18.98;3.90;;;;;;;;;;5092838;28;20507;-74
2023/12/29 01:56:59;;;;;;;26.92;4.10;;;;;;;;;;5093310;28;20056;-74
2023/12/29 01:59:26;;;;;;;19.17;2.70;;;;;;;;;;5093165;28;20414;-75
2023/12/29 02:01:52;;;;;;;19.52;3.35;;;;;;;;;;5092635;28;20127;-76
2023/12/29 02:04:18;;;;;;;18.60;3.28;;;;;;;;;;5094112;28;20022;-75
2023/12/29 02:06:44;;;;;;;26.77;4.00;;;;;;;;;;5094366;28;20024;-74
2023/12/29 02:09:12;;;;;;;19.50;3.20;;;;;;;;;;5094136;28;20032;-76
2023/12/29 02:11:38;;;;;;;20.52;3.20;;;;;;;;;;5093906;28;20095;-76
2023/12/29 02:14:04;;;;;;;21.77;3.85;;;;;;;;;;5094421;28;20027;-75
2023/12/29 02:16:50;;;;;;;19.42;2.92;;;;;;;;;;5093999;28;20056;-75
2023/12/29 02:19:25;;;;;;;18.20;2.78;;;;;;;;;;5093965;28;20534;-75
2023/12/29 02:21:50;;;;;;;23.92;3.28;;;;;;;;;;5093766;28;20036;-75
2023/12/29 02:24:16;;;;;;;25.30;3.60;;;;;;;;;;5099463;28;20036;-75
2023/12/29 02:26:45;;;;;;;19.80;3.55;;;;;;;;;;5097218;28;20024;-75
2023/12/29 02:29:15;;;;;;;24.02;3.05;;;;;;;;;;5098853;28;20501;-76
2023/12/29 02:31:45;;;;;;;28.33;3.33;;;;;;;;;;5113614;28;20038;-75
2023/12/29 02:34:12;;;;;;;21.27;3.22;;;;;;;;;;5113328;28;20032;-75
2023/12/29 02:36:42;;;;;;;18.27;3.05;;;;;;;;;;5112332;28;20027;-75
2023/12/29 02:39:08;;;;;;;24.48;3.25;;;;;;;;;;5093083;28;20032;-75
2023/12/29 02:41:34;;;;;;;19.35;2.80;;;;;;;;;;5093706;28;20020;-75
2023/12/29 02:44:00;;;;;;;19.10;3.13;;;;;;;;;;5100546;28;20032;-74
2023/12/29 02:46:26;;;;;;;15.40;3.25;;;;;;;;;;5106569;28;20021;-74
2023/12/29 02:48:52;;;;;;;18.65;3.78;;;;;;;;;;5097219;28;20019;-74
2023/12/29 02:51:18;;;;;;;21.92;3.35;;;;;;;;;;5095389;28;20020;-75
2023/12/29 02:53:44;;;;;;;21.70;3.50;;;;;;;;;;5097758;28;20032;-76
2023/12/29 02:56:10;;;;;;;25.02;3.50;;;;;;;;;;5093758;28;20093;-74
2023/12/29 02:58:36;;;;;;;11.75;2.42;;;;;;;;;;5110234;28;20023;-75
2023/12/29 03:01:02;;;;;;;23.05;3.30;;;;;;;;;;5094114;28;20109;-75
2023/12/29 03:03:28;;;;;;;15.43;2.63;;;;;;;;;;5092721;28;20290;-74
2023/12/29 03:05:54;;;;;;;17.42;3.00;;;;;;;;;;5094456;28;20024;-75
2023/12/29 03:08:20;;;;;;;13.93;2.45;;;;;;;;;;5098545;28;20023;-75
2023/12/29 03:10:46;;;;;;;16.20;2.70;;;;;;;;;;5098307;28;20039;-70
2023/12/29 03:13:12;;;;;;;14.70;2.78;;;;;;;;;;5095826;28;20028;-74
2023/12/29 03:15:38;;;;;;;14.98;2.58;;;;;;;;;;5076183;28;20028;-74
2023/12/29 03:18:04;;;;;;;17.10;2.40;;;;;;;;;;5092900;28;20512;-74
2023/12/29 03:20:30;;;;;;;15.30;2.50;;;;;;;;;;5092525;28;20056;-74
2023/12/29 03:22:57;;;;;;;12.77;2.13;;;;;;;;;;5092404;28;20059;-74
2023/12/29 03:25:23;;;;;;;14.93;2.75;;;;;;;;;;5097702;28;20028;-73
2023/12/29 03:27:49;;;;;;;15.90;2.13;;;;;;;;;;5113141;28;20023;-75
2023/12/29 03:30:15;;;;;;;10.90;2.63;;;;;;;;;;5102108;28;20035;-74
2023/12/29 03:32:41;;;;;;;9.90;2.13;;;;;;;;;;5094536;28;20039;-74
2023/12/29 03:35:07;;;;;;;13.30;1.98;;;;;;;;;;5101646;28;20059;-74
2023/12/29 03:37:33;;;;;;;16.08;2.55;;;;;;;;;;5099931;28;20221;-74
2023/12/29 03:39:59;;;;;;;12.10;2.58;;;;;;;;;;5092270;28;20020;-75
2023/12/29 03:42:25;;;;;;;16.73;2.90;;;;;;;;;;5091540;28;20035;-74
2023/12/29 03:44:51;;;;;;;17.75;2.53;;;;;;;;;;5092211;28;20024;-74
2023/12/29 03:47:17;;;;;;;9.70;2.33;;;;;;;;;;5092189;28;20020;-74
2023/12/29 03:49:42;;;;;;;12.85;2.50;;;;;;;;;;5092081;28;20047;-74
2023/12/29 03:52:08;;;;;;;16.17;2.67;;;;;;;;;;5092074;28;20090;-75
2023/12/29 03:54:35;;;;;;;11.90;2.25;;;;;;;;;;5092563;28;20028;-74
2023/12/29 03:57:01;;;;;;;13.23;2.65;;;;;;;;;;5092459;28;20482;-75
2023/12/29 03:59:27;;;;;;;11.13;2.35;;;;;;;;;;5092472;28;20035;-75
2023/12/29 04:01:54;;;;;;;9.60;2.35;;;;;;;;;;5092150;28;20046;-76
2023/12/29 04:04:20;;;;;;;6.18;1.73;;;;;;;;;;5095481;28;20020;-75
2023/12/29 04:06:46;;;;;;;9.18;2.00;;;;;;;;;;5092138;28;20467;-74
2023/12/29 04:09:12;;;;;;;12.77;2.13;;;;;;;;;;5091631;28;20028;-74
2023/12/29 04:11:38;;;;;;;7.97;1.80;;;;;;;;;;5092066;28;20054;-77
2023/12/29 04:14:04;;;;;;;9.13;1.88;;;;;;;;;;5090642;28;20020;-74
2023/12/29 04:16:30;;;;;;;8.18;1.60;;;;;;;;;;5090984;28;20091;-74
2023/12/29 04:18:56;;;;;;;10.02;2.22;;;;;;;;;;5090411;28;20072;-74
2023/12/29 04:21:22;;;;;;;9.60;1.98;;;;;;;;;;5089535;28;20027;-75
2023/12/29 04:23:48;;;;;;;8.70;1.75;;;;;;;;;;5090587;28;20032;-74
2023/12/29 04:26:14;;;;;;;5.75;1.35;;;;;;;;;;5091290;28;20396;-74
2023/12/29 04:28:40;;;;;;;6.15;1.23;;;;;;;;;;5091006;28;20024;-75
2023/12/29 04:31:06;;;;;;;6.40;1.55;;;;;;;;;;5092030;28;20120;-73
2023/12/29 04:33:32;;;;;;;9.07;1.40;;;;;;;;;;5089822;28;20035;-73
2023/12/29 04:36:00;;;;;;;8.95;1.73;;;;;;;;;;5091183;28;20026;-75
2023/12/29 04:38:26;;;;;;;8.48;1.40;;;;;;;;;;5091598;28;20032;-75
2023/12/29 04:40:52;;;;;;;5.35;1.30;;;;;;;;;;5092507;28;20038;-76
2023/12/29 04:43:18;;;;;;;12.32;1.80;;;;;;;;;;5092437;28;20024;-74
2023/12/29 04:45:44;;;;;;;8.48;1.40;;;;;;;;;;5091297;28;20028;-75
2023/12/29 04:48:10;;;;;;;8.20;1.25;;;;;;;;;;5091367;28;20421;-73
2023/12/29 04:50:36;;;;;;;12.27;1.73;;;;;;;;;;5091504;28;20020;-73
2023/12/29 04:53:01;;;;;;;10.70;1.60;;;;;;;;;;5091585;28;20491;-74
2023/12/29 04:55:28;;;;;;;10.38;1.92;;;;;;;;;;5093140;28;20031;-74
2023/12/29 04:57:54;;;;;;;7.50;1.38;;;;;;;;;;5093236;28;20048;-75
2023/12/29 05:00:20;;;;;;;6.85;1.33;;;;;;;;;;5075106;28;20058;-75
2023/12/29 05:02:46;;;;;;;9.98;1.45;;;;;;;;;;5091350;28;20024;-74
2023/12/29 05:05:12;;;;;;;8.52;1.80;;;;;;;;;;5073195;28;20498;-75
2023/12/29 05:07:38;;;;;;;7.28;2.22;;;;;;;;;;5075340;28;20021;-75
2023/12/29 05:10:04;;;;;;;16.00;1.63;;;;;;;;;;5092904;28;20085;-77
2023/12/29 05:12:30;;;;;;;14.85;1.63;;;;;;;;;;5091492;28;20059;-75
2023/12/29 05:14:56;;;;;;;10.38;1.92;;;;;;;;;;5091089;28;20055;-74
2023/12/29 05:17:22;;;;;;;17.90;3.13;;;;;;;;;;5091172;28;20039;-75
2023/12/29 05:19:48;;;;;;;14.48;2.78;;;;;;;;;;5091019;28;20085;-75
2023/12/29 05:22:17;;;;;;;12.25;2.33;;;;;;;;;;5090947;28;20024;-75
2023/12/29 05:24:43;;;;;;;22.10;2.17;;;;;;;;;;5091070;28;20395;-75
2023/12/29 05:27:09;;;;;;;15.65;2.03;;;;;;;;;;5091152;28;20359;-75
2023/12/29 05:29:35;;;;;;;21.27;2.42;;;;;;;;;;5090783;28;20024;-74
2023/12/29 05:32:02;;;;;;;14.43;2.05;;;;;;;;;;5090710;28;20028;-73
2023/12/29 05:34:28;;;;;;;19.10;2.65;;;;;;;;;;5095099;28;20336;-74
2023/12/29 05:36:54;;;;;;;22.52;2.88;;;;;;;;;;5097355;28;20047;-75
2023/12/29 05:39:20;;;;;;;17.05;2.30;;;;;;;;;;5094824;28;20040;-75
2023/12/29 05:41:46;;;;;;;14.85;2.08;;;;;;;;;;5094531;28;20028;-74
2023/12/29 05:44:12;;;;;;;16.38;2.70;;;;;;;;;;5094734;28;20020;-75
2023/12/29 05:46:38;;;;;;;12.95;2.72;;;;;;;;;;5076353;28;20383;-74
2023/12/29 05:49:04;;;;;;;11.30;2.20;;;;;;;;;;5094644;28;20020;-74
2023/12/29 05:51:30;;;;;;;18.20;2.35;;;;;;;;;;5094502;28;20061;-75
2023/12/29 05:53:56;;;;;;;13.10;2.28;;;;;;;;;;5094553;28;20072;-76
2023/12/29 05:56:22;;;;;;;13.07;2.25;;;;;;;;;;5094723;28;20508;-75
2023/12/29 05:58:48;;;;;;;11.68;2.08;;;;;;;;;;5093969;28;20081;-73
2023/12/29 06:01:14;;;;;;;20.23;2.58;;;;;;;;;;5093836;28;20028;-75
2023/12/29 06:03:40;;;;;;;16.65;2.47;;;;;;;;;;5094056;28;20024;-74
2023/12/29 06:06:06;;;;;;;14.23;2.47;;;;;;;;;;5094131;28;20070;-73
2023/12/29 06:08:32;;;;;;;15.63;2.45;;;;;;;;;;5094101;28;20474;-74
2023/12/29 06:10:58;;;;;;;13.27;2.42;;;;;;;;;;5094261;28;20114;-73
2023/12/29 06:13:24;;;;;;;19.02;2.95;;;;;;;;;;5094387;28;20028;-75
2023/12/29 06:15:50;;;;;;;20.85;2.70;;;;;;;;;;5097667;28;20035;-75
2023/12/29 06:18:16;;;;;;;14.48;2.20;;;;;;;;;;5098235;28;20505;-76
2023/12/29 06:20:42;;;;;;;17.38;2.75;;;;;;;;;;5096856;28;20500;-76
2023/12/29 06:23:08;;;;;;;25.08;2.85;;;;;;;;;;5109460;28;20038;-77
2023/12/29 06:25:34;;;;;;;26.15;3.50;;;;;;;;;;5122235;28;20096;-75
2023/12/29 06:28:00;;;;;;;16.08;3.00;;;;;;;;;;5128300;28;20043;-73
2023/12/29 06:30:26;;;;;;;22.75;2.97;;;;;;;;;;5101668;28;20043;-76
2023/12/29 06:32:52;;;;;;;17.67;2.60;;;;;;;;;;5115312;28;20019;-76
2023/12/29 06:35:18;;;;;;;16.00;2.58;;;;;;;;;;5114171;28;20513;-75
2023/12/29 06:37:44;;;;;;;16.55;3.03;;;;;;;;;;5112530;28;20027;-75
2023/12/29 06:40:10;;;;;;;27.05;3.65;;;;;;;;;;5096633;28;20024;-75
2023/12/29 06:42:37;;;;;;;14.30;2.92;;;;;;;;;;5099320;28;20107;-74
2023/12/29 06:45:03;;;;;;;20.50;2.88;;;;;;;;;;5104615;28;20490;-75
2023/12/29 06:47:29;;;;;;;18.52;2.78;;;;;;;;;;5100407;28;20028;-75
2023/12/29 06:49:55;;;;;;;25.13;3.58;;;;;;;;;;5098651;28;20027;-76
2023/12/29 06:52:21;;;;;;;19.55;3.15;;;;;;;;;;5112009;28;20035;-76
2023/12/29 06:54:47;;;;;;;16.10;3.35;;;;;;;;;;5104947;28;20035;-78
2023/12/29 06:57:15;;;;;;;16.00;2.80;;;;;;;;;;5111287;28;20145;-77
2023/12/29 06:59:41;;;;;;;14.48;2.67;;;;;;;;;;5104446;28;20120;-76
2023/12/29 07:02:07;;;;;;;35.05;3.45;;;;;;;;;;5114453;28;20032;-75
2023/12/29 07:04:33;;;;;;;24.30;3.85;;;;;;;;;;5098423;28;20509;-75
2023/12/29 07:07:02;;;;;;;31.85;3.90;;;;;;;;;;5114996;28;20028;-76
2023/12/29 07:09:28;;;;;;;21.90;3.22;;;;;;;;;;5111670;28;20038;-74
2023/12/29 07:11:54;;;;;;;20.90;3.53;;;;;;;;;;5101091;28;20027;-74
2023/12/29 07:14:20;;;;;;;32.10;4.10;;;;;;;;;;5101213;28;20023;-74
2023/12/29 07:16:46;;;;;;;28.83;4.03;;;;;;;;;;5093842;28;20076;-74
2023/12/29 07:19:12;;;;;;;34.50;4.22;;;;;;;;;;5094466;28;20141;-75
2023/12/29 07:21:38;;;;;;;35.22;4.60;;;;;;;;;;5096351;28;20024;-75
2023/12/29 07:24:04;;;;;;;34.15;5.18;;;;;;;;;;5092711;28;20387;-75
2023/12/29 07:26:30;;;;;;;29.35;4.07;;;;;;;;;;5092727;28;20103;-75
2023/12/29 07:28:56;;;;;;;34.95;3.83;;;;;;;;;;5092726;28;20399;-73
2023/12/29 07:31:23;;;;;;;37.50;3.85;;;;;;;;;;5092604;28;20383;-74
2023/12/29 07:33:49;;;;;;;34.42;4.30;;;;;;;;;;5092439;28;20161;-74
2023/12/29 07:36:15;;;;;;;32.22;4.35;;;;;;;;;;5092557;28;20024;-75
2023/12/29 07:38:42;;;;;;;38.20;4.40;;;;;;;;;;5092592;28;20031;-75
2023/12/29 07:41:08;;;;;;;33.53;4.70;;;;;;;;;;5094170;28;20024;-75
2023/12/29 07:43:35;;;;;;;35.83;4.57;;;;;;;;;;5075662;28;20035;-74
2023/12/29 07:46:02;;;;;;;34.15;4.72;;;;;;;;;;5092384;28;20028;-74
2023/12/29 07:48:28;;;;;;;31.90;4.28;;;;;;;;;;5092213;28;20024;-73
2023/12/29 07:50:54;;;;;;;32.63;4.72;;;;;;;;;;5092395;28;20089;-74
2023/12/29 07:53:20;;;;;;;31.85;4.97;;;;;;;;;;5091963;28;20035;-75
2023/12/29 07:55:48;;;;;;;32.33;4.72;;;;;;;;;;5091995;28;20031;-74
2023/12/29 07:58:14;;;;;;;34.67;4.55;;;;;;;;;;5073998;28;20024;-74
2023/12/29 08:00:40;;;;;;;32.72;4.60;;;;;;;;;;5093998;28;20386;-75
2023/12/29 08:03:07;;;;;;;38.65;5.78;;;;;;;;;;5093630;28;20059;-75
2023/12/29 08:05:33;;;;;;;56.97;9.82;;;;;;;;;;5093785;28;20490;-75
2023/12/29 08:07:59;;;;;;;35.75;5.47;;;;;;;;;;5094370;28;20028;-73
2023/12/29 08:10:25;;;;;;;34.80;4.63;;;;;;;;;;5091684;28;20317;-74
2023/12/29 08:12:52;;;;;;;36.13;5.05;;;;;;;;;;5092500;28;20152;-74
2023/12/29 08:15:18;;;;;;;41.25;5.15;;;;;;;;;;5091990;28;20110;-74
2023/12/29 08:17:44;;;;;;;40.63;5.13;;;;;;;;;;5092204;28;20115;-75
2023/12/29 08:20:10;;;;;;;43.72;5.43;;;;;;;;;;5091822;28;20298;-74
2023/12/29 08:22:36;;;;;;;35.95;5.80;;;;;;;;;;5091602;28;20024;-74
2023/12/29 08:25:03;;;;;;;38.70;5.78;;;;;;;;;;5092167;28;20024;-78
2023/12/29 08:27:29;;;;;;;34.35;4.65;;;;;;;;;;5092530;28;20039;-74
2023/12/29 08:29:55;;;;;;;34.60;5.47;;;;;;;;;;5091801;28;20050;-74
2023/12/29 08:32:22;;;;;;;35.42;4.80;;;;;;;;;;5092070;28;20115;-75
2023/12/29 08:34:48;;;;;;;36.63;5.85;;;;;;;;;;5093756;28;20016;-75
2023/12/29 08:37:19;;;;;;;36.95;5.15;;;;;;;;;;5091613;28;20493;-73
2023/12/29 08:39:46;;;;;;;41.30;5.05;;;;;;;;;;5091328;28;20016;-73
2023/12/29 08:42:12;;;;;;;39.10;5.47;;;;;;;;;;5090981;28;20027;-73
2023/12/29 08:44:38;;;;;;;40.13;4.75;;;;;;;;;;5091397;28;20036;-72
2023/12/29 08:47:07;;;;;;;37.42;5.22;;;;;;;;;;5091411;28;20024;-75
2023/12/29 08:49:34;;;;;;;32.72;4.85;;;;;;;;;;5091143;28;20486;-73
2023/12/29 08:52:00;;;;;;;28.05;4.00;;;;;;;;;;5091203;28;20028;-73
2023/12/29 08:54:26;;;;;;;26.92;4.00;;;;;;;;;;5091890;28;20024;-73
2023/12/29 08:56:52;;;;;;;29.48;4.20;;;;;;;;;;5092492;28;20028;-74
2023/12/29 08:59:18;;;;;;;28.52;3.70;;;;;;;;;;5073251;28;20459;-74
2023/12/29 09:01:44;;;;;;;30.25;9.05;;;;;;;;;;5091181;28;20055;-73
2023/12/29 09:04:10;;;;;;;19.63;3.38;;;;;;;;;;5092433;28;20097;-76
2023/12/29 09:06:36;;;;;;;25.23;3.05;;;;;;;;;;5095153;28;20099;-76
2023/12/29 09:09:02;;;;;;;22.05;2.90;;;;;;;;;;5077779;28;20418;-77
2023/12/29 09:11:28;;;;;;;14.85;2.58;;;;;;;;;;5097142;28;20412;-78
2023/12/29 09:13:53;;;;;;;18.13;2.60;;;;;;;;;;5106934;28;20035;-75
2023/12/29 09:16:19;;;;;;;94.10;16.13;;;;;;;;;;5088149;28;20113;-75
2023/12/29 09:18:45;;;;;;;12.88;2.63;;;;;;;;;;5097201;28;20031;-74
2023/12/29 09:21:12;;;;;;;8.30;1.50;;;;;;;;;;5100777;28;20039;-74
2023/12/29 09:23:38;;;;;;;13.80;2.53;;;;;;;;;;5115243;28;20045;-75
2023/12/29 09:26:04;;;;;;;21.85;3.30;;;;;;;;;;5114930;28;20038;-75
2023/12/29 09:28:32;;;;;;;14.07;2.13;;;;;;;;;;5115583;28;20034;-74
2023/12/29 09:31:00;;;;;;;12.30;2.40;;;;;;;;;;5115524;28;20020;-75
2023/12/29 09:33:26;;;;;;;15.18;2.72;;;;;;;;;;5115236;28;20077;-75
2023/12/29 09:35:52;;;;;;;23.48;3.25;;;;;;;;;;5116400;28;20024;-76
2023/12/29 09:38:19;;;;;;;16.00;2.70;;;;;;;;;;5116042;28;20020;-76
2023/12/29 09:40:45;;;;;;;12.80;2.33;;;;;;;;;;5116103;28;20557;-76
2023/12/29 09:43:11;;;;;;;12.65;2.88;;;;;;;;;;5097105;28;20042;-76
2023/12/29 09:45:38;;;;;;;14.27;2.60;;;;;;;;;;5115336;28;20095;-75
2023/12/29 09:48:08;;;;;;;14.50;2.35;;;;;;;;;;5115050;28;20023;-74
2023/12/29 09:50:35;;;;;;;15.18;2.92;;;;;;;;;;5116576;28;20092;-75
2023/12/29 09:53:02;;;;;;;14.30;2.72;;;;;;;;;;5116590;28;20027;-75
2023/12/29 09:55:28;;;;;;;16.67;3.03;;;;;;;;;;5114998;28;20097;-72
2023/12/29 09:57:55;;;;;;;12.90;2.95;;;;;;;;;;5115087;28;20501;-74
2023/12/29 10:00:21;;;;;;;18.42;3.10;;;;;;;;;;5114440;28;20062;-74
2023/12/29 10:02:48;;;;;;;27.17;3.55;;;;;;;;;;5116332;28;20069;-75
2023/12/29 10:05:15;;;;;;;24.50;4.15;;;;;;;;;;5115443;28;20419;-74
2023/12/29 10:07:42;;;;;;;27.98;3.67;;;;;;;;;;5115202;28;20073;-75
2023/12/29 10:10:14;;;;;;;28.65;4.07;;;;;;;;;;5114565;28;20133;-76
2023/12/29 10:12:40;;;;;;;24.77;3.65;;;;;;;;;;5119188;28;20035;-79
2023/12/29 10:15:10;;;;;;;31.80;5.05;;;;;;;;;;5116203;28;20124;-77
2023/12/29 10:17:39;;;;;;;34.92;4.90;;;;;;;;;;5114801;28;20470;-79
2023/12/29 10:20:25;;;;;;;36.92;4.97;;;;;;;;;;5119073;28;20024;-78
2023/12/29 10:23:09;;;;;;;31.17;4.60;;;;;;;;;;5069076;28;20059;-80
2023/12/29 10:25:38;;;;;;;29.03;4.57;;;;;;;;;;5121467;28;20054;-75
2023/12/29 10:28:04;;;;;;;44.53;8.80;;;;;;;;;;5114316;28;20419;-76
2023/12/29 10:30:31;;;;;;;42.78;5.60;;;;;;;;;;5113884;28;20028;-75
2023/12/29 10:32:58;;;;;;;34.78;5.00;;;;;;;;;;5113783;28;20146;-75
2023/12/29 10:35:24;;;;;;;61.47;16.55;;;;;;;;;;5114305;28;20469;-75
2023/12/29 10:37:50;;;;;;;34.15;5.72;;;;;;;;;;5102528;28;20553;-76
2023/12/29 10:40:19;;;;;;;33.65;4.25;;;;;;;;;;5094464;28;20640;-76
2023/12/29 10:43:00;;;;;;;35.22;4.30;;;;;;;;;;5095043;28;20024;-76
2023/12/29 10:45:26;;;;;;;42.05;5.32;;;;;;;;;;5094969;28;20467;-77
2023/12/29 10:47:52;;;;;;;42.30;5.90;;;;;;;;;;5094592;28;20103;-76
2023/12/29 10:50:18;;;;;;;40.83;8.40;;;;;;;;;;5093820;28;20020;-75
2023/12/29 10:52:46;;;;;;;37.90;6.90;;;;;;;;;;5094156;28;20094;-75
2023/12/29 10:55:12;;;;;;;26.08;4.70;;;;;;;;;;5094776;28;20095;-77
2023/12/29 10:57:38;;;;;;;31.13;4.50;;;;;;;;;;5105607;28;20051;-75
2023/12/29 11:00:06;;;;;;;32.90;4.55;;;;;;;;;;5097374;28;20453;-74
2023/12/29 11:02:33;;;;;;;31.75;4.90;;;;;;;;;;5104237;28;20106;-74
2023/12/29 11:05:09;;;;;;;35.60;5.85;;;;;;;;;;5109389;28;20016;-76
2023/12/29 11:07:36;;;;;;;42.70;5.53;;;;;;;;;;5104466;28;20020;-76
2023/12/29 11:10:09;;;;;;;33.58;8.75;;;;;;;;;;5100350;28;20389;-75
2023/12/29 11:12:36;;;;;;;34.10;4.65;;;;;;;;;;5100972;28;20024;-74
2023/12/29 11:15:03;;;;;;;28.75;4.93;;;;;;;;;;5108734;28;20032;-74
2023/12/29 11:17:31;;;;;;;36.88;7.95;;;;;;;;;;5112101;28;20031;-75
2023/12/29 11:19:58;;;;;;;27.05;4.13;;;;;;;;;;5111290;28;20023;-75
2023/12/29 11:22:25;;;;;;;29.17;4.70;;;;;;;;;;5112092;28;20051;-78
2023/12/29 11:24:51;;;;;;;24.27;3.88;;;;;;;;;;5111867;28;20051;-75
2023/12/29 11:27:17;;;;;;;33.42;4.30;;;;;;;;;;5111941;28;20043;-74
2023/12/29 11:29:43;;;;;;;26.55;4.28;;;;;;;;;;5114085;28;20106;-76
2023/12/29 11:32:15;;;;;;;28.00;4.13;;;;;;;;;;5121873;28;20039;-75
2023/12/29 11:34:47;;;;;;;29.70;4.40;;;;;;;;;;5121023;28;20088;-76
2023/12/29 11:37:28;;;;;;;30.95;4.55;;;;;;;;;;5112213;28;20051;-76
2023/12/29 11:40:05;;;;;;;33.88;4.40;;;;;;;;;;5112370;28;20098;-77
2023/12/29 11:42:33;;;;;;;36.65;4.82;;;;;;;;;;5095412;28;20031;-76
2023/12/29 11:45:19;;;;;;;22.50;3.95;;;;;;;;;;5119909;28;20083;-76
2023/12/29 11:47:45;;;;;;;27.83;4.05;;;;;;;;;;5114461;28;20016;-76
2023/12/29 11:50:11;;;;;;;26.00;4.63;;;;;;;;;;5110688;28;20091;-75
2023/12/29 11:52:41;;;;;;;33.42;4.93;;;;;;;;;;5109637;28;20090;-76
2023/12/29 11:55:14;;;;;;;27.42;4.40;;;;;;;;;;5110592;28;20383;-75
2023/12/29 11:57:41;;;;;;;21.73;3.58;;;;;;;;;;5109151;28;20015;-77
2023/12/29 12:00:07;;;;;;;23.13;4.82;;;;;;;;;;5110997;28;20024;-76
2023/12/29 12:02:34;;;;;;;23.50;3.40;;;;;;;;;;5108840;28;20103;-75
2023/12/29 12:05:00;;;;;;;17.20;3.72;;;;;;;;;;5109958;28;20049;-76
2023/12/29 12:07:26;;;;;;;14.15;2.53;;;;;;;;;;5110303;28;20027;-77
2023/12/29 12:09:53;;;;;;;17.63;2.95;;;;;;;;;;5110733;28;20041;-75
2023/12/29 12:12:38;;;;;;;21.33;3.50;;;;;;;;;;5111284;28;20110;-74
2023/12/29 12:15:04;;;;;;;24.08;3.45;;;;;;;;;;5112065;28;20446;-77
2023/12/29 12:17:34;;;;;;;20.67;3.10;;;;;;;;;;5112963;28;20051;-75
2023/12/29 12:20:04;;;;;;;19.90;3.28;;;;;;;;;;5112162;28;20470;-77
2023/12/29 12:22:32;;;;;;;21.08;3.50;;;;;;;;;;5112031;28;20528;-76
2023/12/29 12:24:59;;;;;;;20.08;3.00;;;;;;;;;;5114698;28;20502;-75
2023/12/29 12:27:28;;;;;;;23.45;3.13;;;;;;;;;;5111200;28;20076;-74
2023/12/29 12:29:57;;;;;;;20.08;3.20;;;;;;;;;;5111180;28;20386;-75
2023/12/29 12:32:23;;;;;;;29.25;3.60;;;;;;;;;;5109774;28;20085;-77
2023/12/29 12:34:49;;;;;;;24.48;3.42;;;;;;;;;;5110455;28;20032;-74
2023/12/29 12:37:22;;;;;;;20.17;3.28;;;;;;;;;;5110783;28;20027;-75
2023/12/29 12:39:49;;;;;;;25.42;3.92;;;;;;;;;;5110658;28;20044;-75
2023/12/29 12:42:16;;;;;;;28.17;3.80;;;;;;;;;;5110248;28;20020;-75
2023/12/29 12:44:43;;;;;;;25.45;5.30;;;;;;;;;;5112871;28;20027;-76
2023/12/29 12:47:11;;;;;;;24.20;3.65;;;;;;;;;;5096550;28;20047;-76
2023/12/29 12:49:37;;;;;;;24.23;5.13;;;;;;;;;;5113176;28;20023;-76
2023/12/29 12:52:03;;;;;;;23.60;4.30;;;;;;;;;;5112833;28;20107;-75
2023/12/29 12:54:29;;;;;;;23.10;3.53;;;;;;;;;;5112056;28;20208;-76
2023/12/29 12:56:55;;;;;;;17.70;3.70;;;;;;;;;;5111117;28;20026;-76
2023/12/29 12:59:21;;;;;;;23.80;4.05;;;;;;;;;;5110674;28;20470;-75
2023/12/29 13:01:48;;;;;;;19.25;3.67;;;;;;;;;;5110665;28;20475;-74
2023/12/29 13:04:14;;;;;;;20.50;4.95;;;;;;;;;;5110494;28;20032;-73
2023/12/29 13:06:41;;;;;;;21.80;3.55;;;;;;;;;;5110595;28;20023;-74
2023/12/29 13:09:17;;;;;;;26.27;4.05;;;;;;;;;;5101399;28;20032;-75
2023/12/29 13:11:43;;;;;;;22.80;4.82;;;;;;;;;;5091051;28;20307;-75
2023/12/29 13:14:09;;;;;;;19.42;3.28;;;;;;;;;;5109566;28;20028;-75
2023/12/29 13:16:36;;;;;;;21.45;3.10;;;;;;;;;;5117696;28;20070;-75
2023/12/29 13:19:20;;;;;;;21.30;3.60;;;;;;;;;;5118638;28;20050;-77
2023/12/29 13:21:56;;;;;;;31.15;7.07;;;;;;;;;;5118262;28;20070;-75
2023/12/29 13:24:25;;;;;;;21.38;3.20;;;;;;;;;;5121193;28;20096;-74
2023/12/29 13:26:55;;;;;;;17.30;3.30;;;;;;;;;;5116854;28;20031;-75
2023/12/29 13:29:22;;;;;;;23.40;3.63;;;;;;;;;;5116678;28;20024;-75
2023/12/29 13:31:49;;;;;;;24.30;3.97;;;;;;;;;;5116744;28;20076;-75
2023/12/29 13:34:19;;;;;;;21.42;3.47;;;;;;;;;;5116975;28;20024;-77
2023/12/29 13:36:48;;;;;;;25.75;3.50;;;;;;;;;;5116139;28;20031;-76
2023/12/29 13:39:17;;;;;;;25.15;3.83;;;;;;;;;;5116092;28;20028;-76
2023/12/29 13:41:43;;;;;;;27.23;4.40;;;;;;;;;;5115613;28;20028;-74
2023/12/29 13:44:09;;;;;;;23.65;3.90;;;;;;;;;;5111119;28;20107;-74
2023/12/29 13:46:35;;;;;;;28.65;4.28;;;;;;;;;;5113843;28;20027;-76
2023/12/29 13:49:02;;;;;;;28.70;3.75;;;;;;;;;;5117153;28;20028;-75
2023/12/29 13:51:28;;;;;;;33.78;4.32;;;;;;;;;;5112409;28;20031;-75
2023/12/29 13:54:01;;;;;;;25.63;4.22;;;;;;;;;;5113107;28;20098;-76
2023/12/29 13:56:27;;;;;;;31.30;4.53;;;;;;;;;;5121776;28;20385;-76
2023/12/29 13:58:53;;;;;;;29.75;3.97;;;;;;;;;;5119712;28;20072;-77
2023/12/29 14:01:19;;;;;;;28.05;4.10;;;;;;;;;;5096092;28;20031;-77
2023/12/29 14:03:47;;;;;;;26.15;4.60;;;;;;;;;;5104121;28;20027;-76
2023/12/29 14:06:20;;;;;;;27.05;4.13;;;;;;;;;;5095589;28;20451;-75
2023/12/29 14:08:47;;;;;;;29.67;4.80;;;;;;;;;;5099609;28;20012;-78
2023/12/29 14:11:13;;;;;;;37.88;4.32;;;;;;;;;;5100282;28;20024;-76
2023/12/29 14:13:43;;;;;;;30.48;5.70;;;;;;;;;;5101016;28;20033;-75
2023/12/29 14:16:09;;;;;;;29.77;4.18;;;;;;;;;;5106493;28;20483;-78
2023/12/29 14:18:37;;;;;;;21.38;3.78;;;;;;;;;;5115060;28;20065;-77
2023/12/29 14:21:03;;;;;;;31.42;4.90;;;;;;;;;;5100164;28;20398;-74
2023/12/29 14:23:29;;;;;;;22.40;4.28;;;;;;;;;;5100091;28;20045;-75
2023/12/29 14:26:03;;;;;;;23.70;3.83;;;;;;;;;;5102562;28;20024;-74
2023/12/29 14:28:28;;;;;;;20.70;3.60;;;;;;;;;;5103362;28;20459;-76
2023/12/29 14:31:01;;;;;;;23.00;3.38;;;;;;;;;;5098578;28;20050;-76